Terminal Aerodrome Forecast
Issued by NWS Binghamton, NY

Home | Current Version | Previous Version | Text Only | Print | Product List | Glossary On
Versions: 1 2 3 4 5 6 7 8 9 10 11 12 13 14 15 16 17 18 19 20 21 22 23
000
FTUS41 KBGM 201442 AAA
TAFBGM
TAF AMD
KBGM 201442Z 2015/2112 15008KT 4SM BR OVC008
      TEMPO 2018/2020 P6SM NSW FEW012 OVC070
     FM202000 17008KT 3SM -RA BR OVC008
     FM210300 18008KT 4SM BR OVC003=

USA.gov is the U.S. government's official web portal to all federal, state and local government web resources and services.